Latest Coastal Weather Observations for Point Stuart

IDD60701

Issued at 11:31 pm CST Saturday 25 June 2016 (issued every 10 minutes, with the page automatically refreshed every 10 minutes)

About coastal observations | Map of coastal stations | Coastal observations for NT | Marine services | Other Formats
Station Details ID: 014254 Name: POINT STUART Lat: -12.24 Lon: 131.88 Height: 1.0 m
Data from the previous 72 hours. | See also: Recent months at Point Stuart
Date/Time
CST
Temp
°C
Wind Pressure Rain since
9am
mm
Weather Cloud Vis
km
Sea
Height
m
Swell
Dir  Spd
kts
Gust
kts
hPa Trend Height
m
Period
s
Dir
25/11:30pm 25.5 CALM 0 0 1011.8 - 0.0 - - - - - - -
25/11:00pm 25.6 CALM 0 0 1011.8 - 0.0 - - - - - - -
25/10:30pm 25.1 CALM 0 0 1011.8 - 0.0 - - - - - - -
25/10:00pm 25.3 CALM 0 4 1011.9 - 0.0 - - - - - - -
25/09:30pm 25.6 CALM 0 0 1011.8 - 0.0 - - - - - - -
25/09:00pm 26.0 CALM 0 0 1011.8 - 0.0 - - - - - - -
25/08:30pm 26.4 CALM 0 0 1011.5 - 0.0 - - - - - - -
25/08:00pm 26.9 CALM 0 3 1011.2 - 0.0 - - - - - - -
25/07:30pm 27.9 NNW 2 3 1010.9 - 0.0 - - - - - - -
25/07:00pm 28.5 N 2 4 1010.6 - 0.0 - - - - - - -
25/06:30pm 29.7 NNW 2 4 1010.4 - 0.0 - - - - - - -
25/06:00pm 30.8 NNW 3 5 1010.2 - 0.0 - - - - - - -
25/05:30pm 31.4 N 3 5 1009.9 - 0.0 - - - - - - -
25/05:00pm 32.4 N 4 7 1009.6 - 0.0 - - - - - - -
25/04:30pm 32.5 NNE 5 7 1009.4 - 0.0 - - - - - - -
25/04:00pm 32.4 NNE 6 10 1009.3 - 0.0 - - - - - - -
25/03:30pm 32.5 NNE 7 9 1009.6 - 0.0 - - - - - - -
25/03:00pm 32.4 NNE 6 12 1009.9 - 0.0 - - - - - - -
25/02:30pm 32.3 N 5 9 1010.1 - 0.0 - - - - - - -
25/02:00pm 32.6 NNE 7 11 1010.6 - 0.0 - - - - - - -
25/01:30pm 31.9 NE 9 14 1011.0 - 0.0 - - - - - - -
25/01:00pm 31.3 NE 9 13 1011.4 - 0.0 - - - - - - -
25/12:30pm 31.3 ENE 9 13 1011.9 - 0.0 - - - - - - -
25/12:00pm 30.8 ENE 10 13 1012.2 - 0.0 - - - - - - -
25/11:30am 30.6 E 10 15 1012.5 - 0.0 - - - - - - -
25/11:00am 30.5 E 11 16 1012.7 - 0.0 - - - - - - -
25/10:30am 29.7 ESE 10 15 1012.9 - 0.0 - - - - - - -
25/10:00am 28.6 SE 10 14 1013.1 - 0.0 - - - - - - -
25/09:30am 27.0 SE 7 11 1013.2 - 0.0 - - - - - - -
25/09:00am 26.4 SE 8 11 1013.3 - 0.0 - - - - - - -
25/08:30am 25.2 SE 5 7 1013.0 - 0.0 - - - - - - -
25/08:00am 23.8 SE 4 6 1012.8 - 0.0 - - - - - - -
25/07:30am 22.9 ESE 4 5 1012.5 - 0.0 - - - - - - -
25/07:00am 22.8 ESE 3 5 1012.1 - 0.0 - - - - - - -
25/06:30am 23.2 CALM 0 0 1011.9 - 0.0 - - - - - - -
25/06:00am 23.3 CALM 0 0 1011.5 - 0.0 - - - - - - -
25/05:30am 23.6 CALM 0 0 1011.4 - 0.0 - - - - - - -
25/05:00am 23.6 CALM 0 2 1011.3 - 0.0 - - - - - - -
25/04:30am 23.4 S 4 5 1011.2 - 0.0 - - - - - - -
25/04:00am 23.4 SSW 2 4 1011.1 - 0.0 - - - - - - -
25/03:30am 23.4 SSW 4 5 1011.2 - 0.0 - - - - - - -
25/03:00am 23.3 SSW 1 4 1011.4 - 0.0 - - - - - - -
25/02:30am 23.1 CALM 0 2 1011.5 - 0.0 - - - - - - -
25/02:00am 23.1 SSW 2 5 1011.4 - 0.0 - - - - - - -
25/01:30am 22.7 CALM 0 4 1011.4 - 0.0 - - - - - - -
25/01:00am 22.9 CALM 0 0 1011.2 - 0.0 - - - - - - -
25/12:30am 23.4 CALM 0 0 1011.2 - 0.0 - - - - - - -
25/12:00am 22.7 CALM 0 0 1011.2 - 0.0 - - - - - - -
 
Date/Time
CST
Temp
°C
Wind Pressure Rain since
9am
mm
Weather Cloud Vis
km
Sea
Height
m
Swell
Dir  Spd
kts
Gust
kts
hPa Trend Height
m
Period
s
Dir
24/11:30pm 22.6 CALM 0 0 1011.0 - 0.0 - - - - - - -
24/11:00pm 22.9 CALM 0 0 1010.9 - 0.0 - - - - - - -
24/10:30pm 23.5 CALM 0 0 1010.9 - 0.0 - - - - - - -
24/10:00pm 24.4 CALM 0 0 1010.6 - 0.0 - - - - - - -
24/09:30pm 24.7 SSW 2 3 1010.4 - 0.0 - - - - - - -
24/09:00pm 24.4 SSW 6 7 1010.4 - 0.0 - - - - - - -
24/08:30pm 24.7 CALM 0 0 1010.1 - 0.0 - - - - - - -
24/08:00pm 25.7 CALM 0 0 1010.0 - 0.0 - - - - - - -
24/07:30pm 26.3 NNE 1 7 1009.8 - 0.0 - - - - - - -
24/07:00pm 27.2 W 5 5 1009.5 - 0.0 - - - - - - -
24/06:30pm 28.5 W 4 5 1009.3 - 0.0 - - - - - - -
24/06:00pm 30.1 WNW 5 8 1009.2 - 0.0 - - - - - - -
24/05:30pm 30.8 N 2 5 1009.2 - 0.0 - - - - - - -
24/05:00pm 31.2 N 4 6 1009.1 - 0.0 - - - - - - -
24/04:30pm 31.2 N 4 6 1008.9 - 0.0 - - - - - - -
24/04:00pm 31.3 N 6 9 1008.9 - 0.0 - - - - - - -
24/03:30pm 31.7 NNE 6 9 1008.9 - 0.0 - - - - - - -
24/03:00pm 31.9 N 7 10 1009.2 - 0.0 - - - - - - -
24/02:30pm 32.0 N 6 9 1009.5 - 0.0 - - - - - - -
24/02:00pm 31.7 NNE 7 11 1009.9 - 0.0 - - - - - - -
24/01:30pm 31.5 NNE 7 10 1010.2 - 0.0 - - - - - - -
24/01:00pm 31.0 NNE 7 11 1010.8 - 0.0 - - - - - - -
24/12:30pm 30.9 NNE 7 11 1011.3 - 0.0 - - - - - - -
24/12:00pm 30.5 ENE 8 10 1011.7 - 0.0 - - - - - - -
24/11:30am 29.9 ENE 8 12 1012.2 - 0.0 - - - - - - -
24/11:00am 28.9 ENE 8 11 1012.8 - 0.0 - - - - - - -
24/10:30am 28.0 E 8 10 1013.0 - 0.0 - - - - - - -
24/10:00am 27.5 ESE 8 10 1013.0 - 0.0 - - - - - - -
24/09:30am 25.0 ESE 4 6 1012.8 - 0.0 - - - - - - -
24/09:00am 23.6 ESE 4 7 1012.6 - 0.0 - - - - - - -
24/08:30am 22.9 SE 2 5 1012.0 - 0.0 - - - - - - -
24/08:00am 22.4 SE 3 5 1011.4 - 0.0 - - - - - - -
24/07:30am 21.8 SE 4 5 1011.2 - 0.0 - - - - - - -
24/07:00am 21.7 ESE 3 4 1010.9 - 0.0 - - - - - - -
24/06:30am 21.9 ESE 4 5 1010.9 - 0.0 - - - - - - -
24/06:00am 22.0 ESE 5 7 1010.8 - 0.0 - - - - - - -
24/05:30am 21.7 SE 3 4 1010.7 - 0.0 - - - - - - -
24/05:00am 21.3 S 4 5 1010.3 - 0.0 - - - - - - -
24/04:30am 21.0 S 3 5 1010.3 - 0.0 - - - - - - -
24/04:00am 22.5 CALM 0 0 1010.6 - 0.0 - - - - - - -
24/03:30am 23.2 CALM 0 0 1010.6 - 0.0 - - - - - - -
24/03:00am 23.2 S 3 4 1010.6 - 0.0 - - - - - - -
24/02:30am 23.2 S 6 6 1010.6 - 0.0 - - - - - - -
24/02:00am 23.1 S 4 5 1010.8 - 0.0 - - - - - - -
24/01:30am 23.1 S 5 5 1011.1 - 0.0 - - - - - - -
24/01:00am 22.5 S 4 6 1011.3 - 0.0 - - - - - - -
24/12:30am 22.5 SSW 4 4 1011.3 - 0.0 - - - - - - -
24/12:00am 22.9 S 2 5 1011.3 - 0.0 - - - - - - -
 
Date/Time
CST
Temp
°C
Wind Pressure Rain since
9am
mm
Weather Cloud Vis
km
Sea
Height
m
Swell
Dir  Spd
kts
Gust
kts
hPa Trend Height
m
Period
s
Dir
23/11:30pm 22.7 SSW 4 5 1011.1 - 0.0 - - - - - - -
23/11:00pm 22.8 SSW 4 5 1011.1 - 0.0 - - - - - - -
23/10:30pm 23.2 S 4 5 1011.2 - 0.0 - - - - - - -
23/10:00pm 23.4 CALM 0 0 1011.2 - 0.0 - - - - - - -
23/09:30pm 24.2 CALM 0 0 1011.1 - 0.0 - - - - - - -
23/09:00pm 24.7 CALM 0 0 1010.9 - 0.0 - - - - - - -
23/08:30pm 25.4 CALM 0 3 1010.4 - 0.0 - - - - - - -
23/08:00pm 26.1 NNW 3 4 1010.2 - 0.0 - - - - - - -
23/07:30pm 26.3 N 3 4 1009.7 - 0.0 - - - - - - -
23/07:00pm 26.8 N 3 4 1009.3 - 0.0 - - - - - - -
23/06:30pm 27.4 NNW 4 6 1009.1 - 0.0 - - - - - - -
23/06:00pm 28.3 NNW 4 7 1009.0 - 0.0 - - - - - - -
23/05:30pm 29.1 NNW 6 10 1008.8 - 0.0 - - - - - - -
23/05:00pm 29.8 NNW 7 11 1008.7 - 0.0 - - - - - - -
23/04:30pm 30.7 NW 9 12 1008.7 - 0.0 - - - - - - -
23/04:00pm 31.0 NNW 8 11 1008.4 - 0.0 - - - - - - -
23/03:30pm 31.2 NNW 8 12 1008.5 - 0.0 - - - - - - -
23/03:00pm 31.6 NNW 7 11 1008.7 - 0.0 - - - - - - -
23/02:30pm 32.3 NNW 12 14 1009.0 - 0.0 - - - - - - -
23/02:00pm 32.1 NE 7 11 1009.1 - 0.0 - - - - - - -
23/01:30pm 32.0 NE 8 12 1009.8 - 0.0 - - - - - - -
23/01:00pm 31.4 NE 8 12 1010.4 - 0.0 - - - - - - -
23/12:30pm 30.8 ENE 7 11 1011.0 - 0.0 - - - - - - -
23/12:00pm 30.4 E 7 10 1011.7 - 0.0 - - - - - - -
23/11:30am 29.4 ENE 7 10 1012.0 - 0.0 - - - - - - -
23/11:00am 29.2 E 8 10 1012.3 - 0.0 - - - - - - -
23/10:30am 28.4 E 7 10 1012.5 - 0.0 - - - - - - -
23/10:00am 26.9 ESE 5 7 1012.6 - 0.0 - - - - - - -
23/09:30am 25.5 ESE 5 7 1012.8 - 0.0 - - - - - - -
23/09:00am 23.6 E 4 5 1012.4 - 0.0 - - - - - - -
23/08:30am 21.0 SE 4 6 1012.1 - 0.0 - - - - - - -
23/08:00am 19.2 SSE 4 6 1011.8 - 0.0 - - - - - - -
23/07:30am 17.8 SE 3 4 1011.1 - 0.0 - - - - - - -
23/07:00am 17.8 SE 3 4 1010.9 - 0.0 - - - - - - -
23/06:30am 18.0 SE 4 5 1010.7 - 0.0 - - - - - - -
23/06:00am 17.9 SSE 6 7 1010.5 - 0.0 - - - - - - -
23/05:30am 18.1 S 6 7 1010.3 - 0.0 - - - - - - -
23/05:00am 18.1 S 5 6 1010.3 - 0.0 - - - - - - -
23/04:30am 17.5 SSW 4 5 1010.1 - 0.0 - - - - - - -
23/04:00am 18.2 CALM 0 0 1010.2 - 0.0 - - - - - - -
23/03:30am 18.3 CALM 0 0 1010.4 - 0.0 - - - - - - -
23/03:00am 18.6 CALM 0 0 1010.3 - 0.0 - - - - - - -
23/02:30am 19.8 SSW 1 4 1010.5 - 0.0 - - - - - - -
23/02:00am 20.5 SSW 2 3 1010.8 - 0.0 - - - - - - -
23/01:30am 20.9 SSW 4 5 1011.1 - 0.0 - - - - - - -
23/01:00am 20.9 S 5 6 1011.4 - 0.0 - - - - - - -
23/12:30am 21.1 SSW 4 5 1011.6 - 0.0 - - - - - - -
23/12:00am 21.6 SSW 5 6 1011.5 - 0.0 - - - - - - -

Other Formats:

Comma delimited format used in spreadsheet applications
http://www.bom.gov.au/fwo/IDD60701/IDD60701.94127.axf

JavaScript Object Notation format (JSON) in row-major order
http://www.bom.gov.au/fwo/IDD60701/IDD60701.94127.json